createdAt,value
2022-10-31T00:00:28.383Z,62.47
2022-10-31T00:02:54.753Z,58.53
2022-10-31T00:05:21.798Z,60.60
2022-10-31T00:07:48.349Z,64.35
2022-10-31T00:10:14.779Z,60.22
2022-10-31T00:12:41.185Z,67.43
2022-10-31T00:15:07.764Z,63.05
2022-10-31T00:17:36.519Z,56.72
2022-10-31T00:20:03.167Z,60.33
2022-10-31T00:22:29.517Z,62.58
2022-10-31T00:24:55.843Z,62.88
2022-10-31T00:27:22.162Z,63.00
2022-10-31T00:29:48.472Z,64.65
2022-10-31T00:32:14.799Z,60.78
2022-10-31T00:34:41.119Z,62.20
2022-10-31T00:37:07.422Z,66.60
2022-10-31T00:39:34.923Z,59.15
2022-10-31T00:42:01.268Z,59.50
2022-10-31T00:44:27.609Z,59.25
2022-10-31T00:46:53.959Z,57.75
2022-10-31T00:49:20.394Z,55.83
2022-10-31T00:51:46.762Z,58.90
2022-10-31T00:54:13.099Z,59.78
2022-10-31T00:56:39.433Z,60.53
2022-10-31T00:59:05.799Z,59.08
2022-10-31T01:01:32.227Z,58.30
2022-10-31T01:03:58.743Z,54.10
2022-10-31T01:06:25.057Z,60.20
2022-10-31T01:08:51.426Z,55.50
2022-10-31T01:11:20.751Z,58.75
2022-10-31T01:13:48.309Z,56.30
2022-10-31T01:16:17.261Z,56.45
2022-10-31T01:18:44.084Z,56.33
2022-10-31T01:21:16.131Z,54.80
2022-10-31T01:23:42.987Z,54.13
2022-10-31T01:26:10.774Z,57.75
2022-10-31T01:28:39.401Z,55.33
2022-10-31T01:31:09.214Z,55.88
2022-10-31T01:33:36.662Z,53.65
2022-10-31T01:36:17.617Z,55.10
2022-10-31T01:38:44.028Z,53.42
2022-10-31T01:41:13.309Z,58.40
2022-10-31T01:43:54.598Z,61.72
2022-10-31T01:46:36.525Z,58.17
2022-10-31T01:49:06.552Z,56.08
2022-10-31T01:51:37.688Z,61.03
2022-10-31T01:54:11.561Z,63.53
2022-10-31T01:56:41.728Z,70.38
2022-10-31T01:59:12.084Z,69.00
2022-10-31T02:01:39.202Z,70.28
2022-10-31T02:04:06.907Z,73.68
2022-10-31T02:06:49.588Z,69.80
2022-10-31T02:09:16.121Z,70.10
2022-10-31T02:11:44.009Z,70.97
2022-10-31T02:14:10.743Z,66.10
2022-10-31T02:16:37.056Z,68.95
2022-10-31T02:19:08.734Z,68.03
2022-10-31T02:22:03.213Z,64.78
2022-10-31T02:25:05.265Z,62.28
2022-10-31T02:28:02.461Z,61.08
2022-10-31T02:30:54.630Z,60.35
2022-10-31T02:33:26.743Z,67.97
2022-10-31T02:36:06.169Z,65.15
2022-10-31T02:38:48.125Z,69.55
2022-10-31T02:41:25.985Z,72.72
2022-10-31T02:44:10.812Z,66.63
2022-10-31T02:46:50.944Z,70.70
2022-10-31T02:49:26.289Z,69.13
2022-10-31T02:51:52.703Z,71.65
2022-10-31T02:54:22.319Z,69.80
2022-10-31T02:56:52.172Z,67.45
2022-10-31T02:59:18.732Z,65.82
2022-10-31T03:02:03.444Z,68.28
2022-10-31T03:04:48.302Z,67.15
2022-10-31T03:10:14.829Z,56.03
2022-10-31T03:12:48.570Z,64.78
2022-10-31T03:15:24.048Z,67.18
2022-10-31T03:17:59.204Z,69.30
2022-10-31T03:20:35.396Z,70.95
2022-10-31T03:23:05.214Z,69.07
2022-10-31T03:25:35.283Z,70.30
2022-10-31T03:28:05.439Z,73.18
2022-10-31T03:30:36.028Z,70.43
2022-10-31T03:33:07.374Z,71.15
2022-10-31T03:35:35.784Z,66.78
2022-10-31T03:38:06.974Z,70.30
2022-10-31T03:40:37.697Z,68.35
2022-10-31T03:43:13.758Z,68.05
2022-10-31T04:01:18.017Z,68.88
2022-10-31T04:03:45.951Z,67.10
2022-10-31T04:06:15.771Z,70.43
2022-10-31T04:08:56.761Z,70.20
2022-10-31T04:11:29.299Z,70.72
2022-10-31T04:13:57.708Z,67.50
2022-10-31T04:16:26.487Z,66.20
2022-10-31T04:18:53.060Z,68.70
2022-10-31T04:21:19.427Z,65.00
2022-10-31T04:23:45.823Z,69.57
2022-10-31T04:26:13.391Z,66.65
2022-10-31T04:28:39.923Z,65.25
2022-10-31T04:31:06.397Z,69.50
2022-10-31T04:33:32.702Z,68.00
2022-10-31T04:35:59.058Z,66.95
2022-10-31T04:38:25.520Z,63.63
2022-10-31T04:40:51.860Z,64.82
2022-10-31T04:45:49.783Z,64.05
2022-10-31T04:48:16.349Z,64.20
2022-10-31T04:50:42.782Z,64.68
2022-10-31T04:53:09.201Z,64.95
2022-10-31T04:55:36.817Z,68.90
2022-10-31T04:58:04.327Z,69.13
2022-10-31T05:00:30.997Z,68.57
2022-10-31T05:02:59.172Z,66.10
2022-10-31T05:05:28.985Z,67.38
2022-10-31T05:07:56.479Z,67.97
2022-10-31T05:10:25.239Z,64.90
2022-10-31T05:12:58.354Z,69.38
2022-10-31T05:15:26.900Z,66.23
2022-10-31T05:17:54.491Z,69.85
2022-10-31T05:20:24.028Z,68.50
2022-10-31T05:22:53.433Z,67.88
2022-10-31T05:25:22.156Z,68.38
2022-10-31T05:27:50.568Z,63.78
2022-10-31T05:30:36.614Z,64.97
2022-10-31T05:33:03.242Z,66.18
2022-10-31T05:35:32.645Z,64.97
2022-10-31T05:37:59.607Z,63.08
2022-10-31T05:40:27.714Z,66.55
2022-10-31T05:42:56.302Z,69.00
2022-10-31T05:45:23.763Z,67.38
2022-10-31T05:47:54.782Z,64.90
2022-10-31T05:50:22.309Z,68.20
2022-10-31T05:52:48.739Z,63.53
2022-10-31T05:55:15.154Z,66.90
2022-10-31T05:57:41.457Z,69.43
2022-10-31T06:00:08.691Z,65.93
2022-10-31T06:02:35.463Z,66.80
2022-10-31T06:05:02.688Z,64.93
2022-10-31T06:07:33.943Z,67.15
2022-10-31T06:10:00.433Z,70.25
2022-10-31T06:12:26.811Z,69.25
2022-10-31T06:14:53.132Z,65.93
2022-10-31T06:17:19.462Z,63.60
2022-10-31T06:19:45.855Z,62.17
2022-10-31T06:22:12.408Z,63.22
2022-10-31T06:24:39.326Z,64.60
2022-10-31T06:27:07.154Z,58.38
2022-10-31T06:29:33.531Z,62.67
2022-10-31T06:31:59.876Z,61.38
2022-10-31T06:34:26.184Z,61.55
2022-10-31T06:36:52.597Z,62.80
2022-10-31T06:39:18.946Z,64.22
2022-10-31T06:41:48.613Z,65.35
2022-10-31T06:44:15.018Z,63.13
2022-10-31T06:46:41.362Z,63.17
2022-10-31T06:49:07.656Z,63.20
2022-10-31T06:51:34.023Z,63.40
2022-10-31T06:54:00.347Z,64.13
2022-10-31T06:56:26.784Z,65.22
2022-10-31T06:58:53.188Z,61.80
2022-10-31T07:01:19.647Z,60.28
2022-10-31T07:03:46.430Z,56.58
2022-10-31T07:06:14.008Z,62.65
2022-10-31T07:08:40.689Z,63.08
2022-10-31T07:11:06.996Z,63.10
2022-10-31T07:13:33.694Z,64.15
2022-10-31T07:16:02.474Z,60.90
2022-10-31T07:18:29.188Z,59.90
2022-10-31T07:20:55.716Z,62.42
2022-10-31T07:23:22.836Z,61.63
2022-10-31T07:25:49.157Z,64.45
2022-10-31T07:28:15.714Z,60.70
2022-10-31T07:30:42.039Z,62.25
2022-10-31T07:33:09.366Z,63.30
2022-10-31T07:35:36.290Z,66.55
2022-10-31T07:38:13.815Z,63.28
2022-10-31T07:40:41.206Z,65.78
2022-10-31T07:43:10.151Z,63.97
2022-10-31T07:45:39.523Z,64.70
2022-10-31T07:48:06.541Z,64.18
2022-10-31T07:50:36.752Z,65.45
2022-10-31T07:53:11.736Z,66.65
2022-10-31T07:55:38.741Z,68.65
2022-10-31T07:58:06.395Z,64.55
2022-10-31T08:00:34.747Z,69.63
2022-10-31T08:03:03.826Z,68.38
2022-10-31T08:05:31.762Z,74.65
2022-10-31T08:07:59.098Z,76.15
2022-10-31T08:10:27.079Z,76.70
2022-10-31T08:12:58.312Z,74.57
2022-10-31T08:15:25.261Z,71.65
2022-10-31T08:17:51.668Z,69.18
2022-10-31T08:20:18.993Z,68.63
2022-10-31T08:22:53.845Z,66.45
2022-10-31T08:25:20.168Z,64.63
2022-10-31T08:27:51.564Z,62.15
2022-10-31T08:30:18.652Z,65.22
2022-10-31T08:32:46.215Z,64.95
2022-10-31T08:35:12.666Z,64.30
2022-10-31T08:37:38.989Z,58.58
2022-10-31T08:40:07.456Z,61.25
2022-10-31T08:42:33.900Z,65.72
2022-10-31T08:45:00.289Z,64.57
2022-10-31T08:47:26.754Z,60.35
2022-10-31T08:49:53.056Z,60.58
2022-10-31T08:52:19.375Z,64.10
2022-10-31T08:54:45.688Z,67.30
2022-10-31T08:57:12.000Z,63.35
2022-10-31T08:59:38.309Z,61.47
2022-10-31T09:02:06.121Z,63.25
2022-10-31T09:04:32.448Z,65.07
2022-10-31T09:07:20.041Z,65.57
2022-10-31T09:09:45.152Z,67.80
2022-10-31T09:12:11.465Z,67.00
2022-10-31T09:14:37.821Z,61.03
2022-10-31T09:17:04.141Z,68.32
2022-10-31T09:19:30.649Z,69.13
2022-10-31T09:21:57.013Z,66.63
2022-10-31T09:24:23.418Z,67.38
2022-10-31T09:26:49.764Z,65.07
2022-10-31T09:29:16.104Z,67.85
2022-10-31T09:31:45.043Z,70.05
2022-10-31T09:34:11.617Z,71.63
2022-10-31T09:36:39.271Z,62.58
2022-10-31T09:39:05.637Z,67.38
2022-10-31T09:41:57.245Z,65.88
2022-10-31T09:44:39.204Z,55.10
2022-10-31T09:47:24.714Z,60.60
2022-10-31T09:50:17.959Z,57.38
2022-10-31T09:52:55.041Z,56.97
2022-10-31T09:55:42.841Z,49.90
2022-10-31T09:58:20.769Z,50.88
2022-10-31T10:00:48.816Z,50.78
2022-10-31T10:03:29.684Z,43.30
2022-10-31T10:06:05.538Z,40.80
2022-10-31T10:08:34.118Z,38.60
2022-10-31T10:11:23.864Z,38.55
2022-10-31T10:14:19.045Z,41.63
2022-10-31T10:17:07.265Z,37.45
2022-10-31T10:19:58.587Z,51.30
2022-10-31T10:22:43.526Z,41.13
2022-10-31T10:25:15.293Z,42.10
2022-10-31T10:28:03.480Z,38.08
2022-10-31T10:30:49.670Z,43.03
2022-10-31T10:33:31.883Z,41.30
2022-10-31T10:36:01.490Z,39.58
2022-10-31T10:38:44.558Z,39.63
2022-10-31T10:41:21.727Z,40.10
2022-10-31T10:43:52.474Z,41.30
2022-10-31T10:47:00.847Z,38.88
2022-10-31T10:49:48.788Z,41.08
2022-10-31T10:52:42.032Z,35.92
2022-10-31T10:55:12.813Z,35.50
2022-10-31T10:57:59.750Z,40.70
2022-10-31T11:00:30.366Z,36.25
2022-10-31T11:02:57.527Z,39.72
2022-10-31T11:05:51.526Z,37.45
2022-10-31T11:08:44.403Z,39.47
2022-10-31T11:11:26.652Z,36.22
2022-10-31T11:14:12.665Z,36.75
2022-10-31T11:16:42.796Z,39.42
2022-10-31T11:19:18.221Z,42.22
2022-10-31T11:21:53.778Z,37.97
2022-10-31T11:24:28.328Z,41.40
2022-10-31T11:27:29.488Z,39.22
2022-10-31T11:30:06.526Z,39.97
2022-10-31T11:32:33.330Z,39.63
2022-10-31T11:35:03.443Z,38.30
2022-10-31T11:37:43.571Z,40.28
2022-10-31T11:40:22.122Z,38.25
2022-10-31T11:42:50.676Z,37.30
2022-10-31T11:45:23.077Z,39.17
2022-10-31T11:47:56.732Z,47.75
2022-10-31T11:50:40.212Z,43.28
2022-10-31T11:53:18.808Z,39.47
2022-10-31T11:55:47.357Z,40.72
2022-10-31T11:58:25.822Z,37.70
2022-10-31T12:00:55.716Z,39.15
2022-10-31T12:03:39.538Z,36.70
2022-10-31T12:06:24.610Z,37.60
2022-10-31T12:08:53.589Z,38.50
2022-10-31T12:11:35.272Z,38.70
2022-10-31T12:14:04.601Z,35.17
2022-10-31T12:16:40.965Z,33.22
2022-10-31T12:19:30.524Z,30.30
2022-10-31T12:22:24.975Z,24.55
2022-10-31T12:25:16.417Z,25.30
2022-10-31T12:28:04.714Z,25.15
2022-10-31T12:31:08.477Z,25.42
2022-10-31T12:34:17.156Z,23.48
2022-10-31T12:37:13.769Z,23.92
2022-10-31T12:39:52.867Z,22.65
2022-10-31T12:42:48.115Z,24.58
2022-10-31T12:45:45.824Z,23.95
2022-10-31T12:48:28.193Z,24.75
2022-10-31T12:51:16.377Z,25.27
2022-10-31T12:53:42.669Z,25.90
2022-10-31T12:56:20.276Z,25.33
2022-10-31T12:58:52.559Z,22.40
2022-10-31T13:01:25.359Z,22.17
2022-10-31T13:04:22.625Z,19.33
2022-10-31T13:07:00.462Z,20.20
2022-10-31T13:09:37.944Z,20.02
2022-10-31T13:12:11.254Z,21.23
2022-10-31T13:14:46.936Z,21.00
2022-10-31T13:17:44.401Z,21.20
2022-10-31T13:20:20.806Z,19.90
2022-10-31T13:22:51.124Z,19.85
2022-10-31T13:25:25.526Z,21.90
2022-10-31T13:30:32.221Z,22.80
2022-10-31T13:33:10.478Z,21.52
2022-10-31T13:35:44.341Z,22.60
2022-10-31T13:38:35.929Z,22.70
2022-10-31T13:41:18.962Z,20.52
2022-10-31T13:44:02.378Z,16.90
2022-10-31T13:46:34.549Z,17.40
2022-10-31T13:49:01.295Z,17.77
2022-10-31T13:51:34.913Z,18.20
2022-10-31T13:54:21.915Z,18.08
2022-10-31T13:56:53.467Z,18.08
2022-10-31T13:59:22.008Z,17.92
2022-10-31T14:01:55.984Z,17.52
2022-10-31T14:04:40.230Z,17.45
2022-10-31T14:07:13.152Z,17.38
2022-10-31T14:09:59.680Z,16.25
2022-10-31T14:12:34.494Z,16.88
2022-10-31T14:15:13.144Z,18.13
2022-10-31T14:17:47.920Z,17.90
2022-10-31T14:20:14.930Z,20.48
2022-10-31T14:22:43.094Z,18.58
2022-10-31T14:25:36.125Z,17.05
2022-10-31T14:28:19.191Z,25.38
2022-10-31T14:30:57.958Z,16.60
2022-10-31T14:33:27.915Z,17.40
2022-10-31T14:36:04.374Z,17.38
2022-10-31T14:38:48.724Z,17.27
2022-10-31T14:41:29.368Z,20.25
2022-10-31T14:44:15.487Z,20.67
2022-10-31T14:47:03.389Z,17.67
2022-10-31T14:49:54.449Z,19.73
2022-10-31T14:52:22.027Z,15.98
2022-10-31T14:54:54.614Z,19.50
2022-10-31T14:57:29.766Z,17.92
2022-10-31T15:00:06.034Z,16.70
2022-10-31T15:02:42.463Z,16.73
2022-10-31T15:05:10.961Z,17.65
2022-10-31T15:07:40.910Z,15.73
2022-10-31T15:10:21.353Z,16.20
2022-10-31T15:12:47.863Z,20.67
2022-10-31T15:15:26.747Z,17.02
2022-10-31T15:18:00.455Z,19.13
2022-10-31T15:20:29.441Z,18.25
2022-10-31T15:22:58.709Z,19.15
2022-10-31T15:25:28.996Z,18.60
2022-10-31T15:27:55.322Z,19.98
2022-10-31T15:30:27.920Z,18.70
2022-10-31T15:32:58.770Z,17.55
2022-10-31T15:35:30.965Z,16.08
2022-10-31T15:37:59.872Z,17.55
2022-10-31T15:40:28.051Z,16.30
2022-10-31T15:42:58.962Z,18.40
2022-10-31T15:45:27.978Z,18.60
2022-10-31T15:47:58.754Z,19.02
2022-10-31T15:50:33.510Z,17.80
2022-10-31T15:55:30.530Z,15.80
2022-10-31T15:57:59.574Z,20.05
2022-10-31T16:00:30.404Z,24.30
2022-10-31T16:03:22.553Z,22.75
2022-10-31T16:05:52.036Z,21.50
2022-10-31T16:08:27.591Z,20.83
2022-10-31T16:10:54.309Z,21.70
2022-10-31T16:13:27.057Z,21.92
2022-10-31T16:16:28.735Z,23.98
2022-10-31T16:18:47.505Z,24.85
2022-10-31T16:21:14.175Z,24.40
2022-10-31T16:23:46.831Z,23.73
2022-10-31T16:26:19.568Z,25.67
2022-10-31T16:29:03.199Z,24.10
2022-10-31T16:31:41.016Z,27.30
2022-10-31T16:34:26.239Z,27.10
2022-10-31T16:36:53.641Z,28.23
2022-10-31T16:39:20.097Z,28.30
2022-10-31T16:41:50.200Z,28.70
2022-10-31T16:44:23.360Z,30.13
2022-10-31T16:47:08.417Z,29.55
2022-10-31T16:49:34.786Z,31.45
2022-10-31T16:52:01.147Z,32.15
2022-10-31T16:54:30.044Z,31.73
2022-10-31T16:56:56.521Z,30.95
2022-10-31T16:59:22.852Z,31.02
2022-10-31T17:01:50.208Z,33.45
2022-10-31T17:04:16.757Z,29.58
2022-10-31T17:06:43.226Z,30.60
2022-10-31T17:09:09.817Z,28.73
2022-10-31T17:11:36.854Z,29.42
2022-10-31T17:14:05.721Z,30.45
2022-10-31T17:16:32.029Z,31.83
2022-10-31T17:18:58.343Z,32.67
2022-10-31T17:21:26.300Z,32.65
2022-10-31T17:23:52.601Z,30.85
2022-10-31T17:26:19.775Z,30.45
2022-10-31T17:28:46.375Z,30.25
2022-10-31T17:31:23.527Z,31.15
2022-10-31T17:33:50.745Z,30.70
2022-10-31T17:36:17.479Z,30.67
2022-10-31T17:38:43.791Z,30.73
2022-10-31T17:41:11.453Z,31.67
2022-10-31T17:43:38.265Z,31.08
2022-10-31T17:46:05.085Z,28.20
2022-10-31T17:48:33.725Z,28.45
2022-10-31T17:51:01.813Z,26.23
2022-10-31T17:53:30.304Z,28.50
2022-10-31T17:56:07.789Z,27.63
2022-10-31T17:58:35.533Z,27.90
2022-10-31T18:01:08.269Z,30.05
2022-10-31T18:03:34.744Z,29.60
2022-10-31T18:06:01.055Z,29.80
2022-10-31T18:08:29.667Z,29.88
2022-10-31T18:10:59.657Z,27.73
2022-10-31T18:13:27.555Z,28.83
2022-10-31T18:15:54.559Z,29.00
2022-10-31T18:18:21.587Z,30.08
2022-10-31T18:20:48.000Z,28.25
2022-10-31T18:23:14.641Z,30.40
2022-10-31T18:25:43.249Z,30.83
2022-10-31T18:28:10.391Z,30.48
2022-10-31T18:30:41.356Z,30.40
2022-10-31T18:33:08.464Z,29.98
2022-10-31T18:35:39.113Z,28.73
2022-10-31T18:38:06.833Z,29.35
2022-10-31T18:40:35.685Z,30.67
2022-10-31T18:43:03.386Z,30.02
2022-10-31T18:45:41.745Z,27.50
2022-10-31T18:48:14.322Z,29.00
2022-10-31T18:50:41.463Z,28.50
2022-10-31T18:53:07.956Z,28.60
2022-10-31T18:55:34.509Z,28.90
2022-10-31T18:58:00.828Z,28.48
2022-10-31T19:00:27.155Z,28.90
2022-10-31T19:02:56.321Z,29.02
2022-10-31T19:05:23.073Z,30.42
2022-10-31T19:07:49.406Z,31.52
2022-10-31T19:10:15.901Z,30.15
2022-10-31T19:12:42.217Z,32.80
2022-10-31T19:15:08.934Z,29.17
2022-10-31T19:17:35.249Z,30.40
2022-10-31T19:20:01.585Z,30.35
2022-10-31T19:22:31.056Z,30.85
2022-10-31T19:24:57.344Z,30.85
2022-10-31T19:27:26.308Z,29.73
2022-10-31T19:29:52.645Z,29.50
2022-10-31T19:32:19.201Z,28.88
2022-10-31T19:34:45.587Z,28.92
2022-10-31T19:37:12.064Z,30.30
2022-10-31T19:39:43.712Z,29.35
2022-10-31T19:42:10.702Z,28.40
2022-10-31T19:44:37.233Z,28.45
2022-10-31T19:47:03.600Z,29.42
2022-10-31T19:49:30.010Z,28.27
2022-10-31T19:51:56.440Z,29.10
2022-10-31T19:54:23.500Z,28.70
2022-10-31T19:56:49.938Z,29.10
2022-10-31T19:59:16.319Z,29.63
2022-10-31T20:01:42.735Z,30.85
2022-10-31T20:04:09.244Z,29.83
2022-10-31T20:06:46.736Z,30.75
2022-10-31T20:09:18.908Z,29.50
2022-10-31T20:11:51.894Z,31.20
2022-10-31T20:14:24.257Z,29.50
2022-10-31T20:16:59.374Z,30.02
2022-10-31T20:19:25.684Z,28.63
2022-10-31T20:21:52.193Z,29.63
2022-10-31T20:24:18.889Z,28.98
2022-10-31T20:26:45.245Z,28.35
2022-10-31T20:29:19.520Z,28.75
2022-10-31T20:31:47.135Z,30.48
2022-10-31T20:34:14.802Z,30.83
2022-10-31T20:36:41.350Z,31.20
2022-10-31T20:39:09.314Z,29.50
2022-10-31T20:41:39.406Z,30.40
2022-10-31T20:44:06.474Z,29.80
2022-10-31T20:46:33.034Z,29.63
2022-10-31T20:48:59.732Z,29.17
2022-10-31T20:51:28.232Z,29.58
2022-10-31T20:53:56.328Z,29.50
2022-10-31T20:56:24.522Z,28.50
2022-10-31T20:58:51.483Z,28.90
2022-10-31T21:01:21.179Z,30.13
2022-10-31T21:03:48.696Z,30.45
2022-10-31T21:06:16.388Z,29.00
2022-10-31T21:08:43.350Z,29.27
2022-10-31T21:11:13.512Z,27.17
2022-10-31T21:13:42.049Z,28.17
2022-10-31T21:16:11.590Z,30.17
2022-10-31T21:18:39.610Z,29.13
2022-10-31T21:21:11.463Z,30.10
2022-10-31T21:23:38.732Z,30.73
2022-10-31T21:26:11.059Z,30.20
2022-10-31T21:28:37.827Z,29.25
2022-10-31T21:31:13.029Z,29.83
2022-10-31T21:33:39.845Z,31.52
2022-10-31T21:36:07.321Z,30.90
2022-10-31T21:38:34.367Z,30.75
2022-10-31T21:41:03.254Z,32.20
2022-10-31T21:43:30.032Z,31.00
2022-10-31T21:46:02.594Z,30.45
2022-10-31T21:48:28.982Z,29.45
2022-10-31T21:50:55.335Z,29.15
2022-10-31T21:53:40.132Z,31.98
2022-10-31T21:56:07.075Z,31.73
2022-10-31T21:58:36.195Z,30.63
2022-10-31T22:01:05.339Z,29.90
2022-10-31T22:03:38.692Z,30.83
2022-10-31T22:06:07.401Z,30.15
2022-10-31T22:08:34.044Z,31.05
2022-10-31T22:11:05.291Z,30.98
2022-10-31T22:13:33.166Z,30.45
2022-10-31T22:16:04.222Z,30.10
2022-10-31T22:18:30.769Z,30.35
2022-10-31T22:21:19.511Z,31.30
2022-10-31T22:23:51.085Z,33.15
2022-10-31T22:26:17.503Z,31.77
2022-10-31T22:28:46.084Z,31.17
2022-10-31T22:31:15.576Z,30.95
2022-10-31T22:33:42.008Z,31.40
2022-10-31T22:36:11.644Z,31.02
2022-10-31T22:38:42.187Z,30.70
2022-10-31T22:41:10.880Z,31.60
2022-10-31T22:43:37.541Z,27.77
2022-10-31T22:46:06.239Z,28.67
2022-10-31T22:48:37.110Z,28.42
2022-10-31T22:51:08.393Z,27.73
2022-10-31T22:53:35.981Z,28.17
2022-10-31T22:56:03.229Z,28.50
2022-10-31T22:58:30.931Z,27.92
2022-10-31T23:00:57.560Z,29.08
2022-10-31T23:03:24.699Z,27.92
2022-10-31T23:05:57.994Z,27.73
2022-10-31T23:08:25.400Z,27.63
2022-10-31T23:10:52.087Z,30.75
2022-10-31T23:13:36.941Z,43.47
2022-10-31T23:16:07.615Z,41.08
2022-10-31T23:18:49.718Z,42.13
2022-10-31T23:21:37.113Z,40.88
2022-10-31T23:24:03.745Z,41.60
2022-10-31T23:26:48.715Z,40.22
2022-10-31T23:29:15.008Z,38.00
2022-10-31T23:31:41.311Z,34.67
2022-10-31T23:34:07.642Z,40.55
2022-10-31T23:36:34.003Z,39.80
2022-10-31T23:39:00.394Z,39.03
2022-10-31T23:41:26.728Z,36.20
2022-10-31T23:43:53.012Z,38.67
2022-10-31T23:46:19.331Z,33.88
2022-10-31T23:48:48.045Z,37.03
2022-10-31T23:51:14.883Z,35.20
2022-10-31T23:53:45.010Z,38.38
2022-10-31T23:56:12.115Z,36.53
2022-10-31T23:58:38.850Z,37.28
